Time;durP1;ratioP1;P1;durP2;ratioP2;P2;SDS_P1;SDS_P2;PMS_P1;PMS_P2;Temp;Humidity;BMP_temperature;BMP_pressure;BME280_temperature;BME280_humidity;BME280_pressure;Samples;Min_cycle;Max_cycle;Signal;HPM_P1;HPM_P2
2022/10/08 00:02:02;;;;;;;2.70;2.20;;;17.20;59.40;;;;;;5026549;28;20456;-74
2022/10/08 00:04:30;;;;;;;4.43;2.13;;;17.20;59.40;;;;;;5004199;28;20449;-74
2022/10/08 00:06:59;;;;;;;2.60;1.73;;;17.20;59.30;;;;;;4996472;28;20556;-73
2022/10/08 00:09:28;;;;;;;3.07;2.27;;;17.20;59.40;;;;;;5040768;28;20529;-74
2022/10/08 00:11:57;;;;;;;2.60;1.70;;;17.20;59.50;;;;;;5035356;28;20476;-74
2022/10/08 00:14:25;;;;;;;2.77;1.67;;;17.20;59.40;;;;;;4996278;28;20813;-73
2022/10/08 00:16:54;;;;;;;2.57;1.97;;;17.20;59.40;;;;;;4999429;28;20457;-74
2022/10/08 00:19:22;;;;;;;1.70;1.47;;;17.20;59.20;;;;;;5033036;28;20504;-74
2022/10/08 00:21:55;;;;;;;2.67;1.53;;;17.10;59.30;;;;;;5038689;28;20660;-74
2022/10/08 00:24:24;;;;;;;2.20;1.50;;;17.10;59.00;;;;;;5005281;28;21119;-74
2022/10/08 00:26:54;;;;;;;1.73;1.30;;;17.10;59.20;;;;;;5031304;28;20457;-73
2022/10/08 00:29:22;;;;;;;2.80;1.73;;;17.10;59.10;;;;;;5005160;28;20669;-72
2022/10/08 00:31:51;;;;;;;2.17;1.83;;;17.10;58.90;;;;;;4992294;28;20957;-73
2022/10/08 00:34:21;;;;;;;3.50;1.63;;;17.10;58.80;;;;;;5004540;28;20445;-76
2022/10/08 00:36:51;;;;;;;2.33;1.50;;;17.10;59.10;;;;;;5022427;28;20471;-73
2022/10/08 00:39:22;;;;;;;2.40;1.60;;;17.10;59.10;;;;;;5003832;28;20979;-73
2022/10/08 00:41:53;;;;;;;2.83;1.60;;;17.10;59.10;;;;;;5006046;28;20448;-74
2022/10/08 00:44:51;;;;;;;3.70;1.37;;;17.10;59.10;;;;;;5000666;28;20453;-73
2022/10/08 00:47:26;;;;;;;2.83;1.50;;;17.10;59.10;;;;;;5000996;28;20992;-74
2022/10/08 00:49:58;;;;;;;2.67;1.60;;;17.10;59.10;;;;;;4994769;28;20520;-73
2022/10/08 00:52:32;;;;;;;2.60;1.67;;;17.10;59.10;;;;;;5003535;28;20452;-74
2022/10/08 00:55:05;;;;;;;1.70;1.40;;;17.10;59.10;;;;;;4999184;28;21050;-73
2022/10/08 00:57:36;;;;;;;3.30;2.37;;;17.00;59.00;;;;;;5039513;28;20472;-74
2022/10/08 01:00:07;;;;;;;2.27;2.03;;;17.10;59.10;;;;;;4995594;28;20790;-76
2022/10/08 01:02:35;;;;;;;3.00;1.57;;;17.10;59.00;;;;;;4999731;28;20767;-75
2022/10/08 01:05:05;;;;;;;2.80;1.73;;;17.00;59.10;;;;;;5024331;28;20466;-73
2022/10/08 01:07:39;;;;;;;2.30;1.40;;;17.00;59.10;;;;;;5000598;28;20564;-74
2022/10/08 01:10:15;;;;;;;2.20;1.60;;;17.00;58.90;;;;;;4998164;28;20944;-73
2022/10/08 01:12:56;;;;;;;4.60;1.60;;;17.00;59.10;;;;;;4988368;28;20432;-74
2022/10/08 01:15:33;;;;;;;4.40;1.90;;;17.00;59.10;;;;;;5027326;28;20648;-74
2022/10/08 01:18:10;;;;;;;2.70;1.60;;;17.00;59.10;;;;;;5000533;28;20459;-74
2022/10/08 01:20:44;;;;;;;1.80;1.60;;;17.00;59.20;;;;;;5032677;28;20564;-73
2022/10/08 01:23:49;;;;;;;2.60;1.50;;;17.00;59.00;;;;;;5008983;28;20909;-73
2022/10/08 01:26:35;;;;;;;4.00;1.90;;;17.00;59.00;;;;;;5001664;28;20843;-73
2022/10/08 01:29:13;;;;;;;2.27;1.73;;;17.00;59.10;;;;;;5002309;28;20795;-74
2022/10/08 01:31:46;;;;;;;2.77;1.50;;;17.00;58.90;;;;;;5008579;28;20480;-73
2022/10/08 01:34:23;;;;;;;2.97;1.53;;;17.00;58.90;;;;;;5009761;28;20436;-73
2022/10/08 01:36:54;;;;;;;1.97;1.50;;;17.00;59.00;;;;;;5000842;28;20864;-75
2022/10/08 01:39:29;;;;;;;1.63;1.50;;;17.00;59.00;;;;;;5009145;28;20483;-75
2022/10/08 01:42:02;;;;;;;1.90;1.50;;;17.00;58.90;;;;;;5028041;28;20427;-74
2022/10/08 01:44:34;;;;;;;2.90;1.80;;;17.00;59.10;;;;;;5015355;22;20536;-49
2022/10/08 01:47:07;;;;;;;3.80;1.60;;;17.00;59.10;;;;;;5019591;28;20848;-48
2022/10/08 01:49:41;;;;;;;2.20;1.20;;;17.00;59.10;;;;;;4992892;28;20446;-48
2022/10/08 01:52:16;;;;;;;4.60;1.80;;;17.00;59.10;;;;;;5002459;28;21203;-49
2022/10/08 01:54:47;;;;;;;1.93;1.40;;;17.00;59.00;;;;;;4998442;28;20559;-48
2022/10/08 01:57:16;;;;;;;3.00;1.40;;;17.00;59.10;;;;;;5019975;28;21124;-48
2022/10/08 01:59:51;;;;;;;2.37;1.70;;;17.00;59.10;;;;;;4979747;28;20486;-48
2022/10/08 02:02:21;;;;;;;4.10;1.37;;;16.90;59.00;;;;;;4992058;28;20445;-46
2022/10/08 02:04:52;;;;;;;2.23;1.60;;;16.90;59.00;;;;;;4974802;28;20996;-48
2022/10/08 02:07:22;;;;;;;2.50;1.83;;;16.90;59.10;;;;;;4980745;28;20430;-48
2022/10/08 02:09:53;;;;;;;2.80;1.53;;;16.90;59.00;;;;;;4991129;28;20437;-49
2022/10/08 02:12:22;;;;;;;2.20;1.50;;;16.90;59.10;;;;;;4980690;28;20517;-48
2022/10/08 02:14:55;;;;;;;1.70;1.40;;;16.90;59.10;;;;;;4979002;28;20444;-48
2022/10/08 02:17:30;;;;;;;1.43;1.33;;;16.90;59.10;;;;;;5002783;28;20508;-48
2022/10/08 02:20:05;;;;;;;2.53;1.27;;;16.90;59.20;;;;;;4992707;28;20548;-49
2022/10/08 02:22:39;;;;;;;3.60;1.33;;;16.90;59.20;;;;;;4991667;28;20524;-47
2022/10/08 02:25:14;;;;;;;2.07;1.20;;;16.90;59.30;;;;;;4998097;28;20477;-49
2022/10/08 02:27:53;;;;;;;2.97;1.23;;;16.90;59.30;;;;;;4992954;28;20551;-48
2022/10/08 02:30:24;;;;;;;2.43;1.70;;;16.90;59.30;;;;;;4995022;28;20816;-48
2022/10/08 02:33:00;;;;;;;2.90;1.50;;;16.90;59.20;;;;;;4975023;28;20449;-47
2022/10/08 02:35:37;;;;;;;1.90;1.60;;;16.90;59.30;;;;;;4979283;28;20477;-48
2022/10/08 02:38:10;;;;;;;2.80;1.63;;;16.90;59.20;;;;;;4992151;28;20446;-49
2022/10/08 02:40:41;;;;;;;3.17;1.77;;;16.90;59.30;;;;;;4997140;28;20563;-48
2022/10/08 02:43:16;;;;;;;1.53;1.43;;;16.90;59.30;;;;;;4992625;28;20433;-48
2022/10/08 02:45:51;;;;;;;1.90;1.10;;;16.90;59.40;;;;;;4996731;28;20485;-48
2022/10/08 02:48:26;;;;;;;2.27;1.43;;;16.90;59.40;;;;;;4995159;28;21011;-48
2022/10/08 02:50:57;;;;;;;1.53;1.30;;;16.90;59.40;;;;;;4990448;28;20553;-48
2022/10/08 02:53:26;;;;;;;2.30;1.53;;;16.90;59.50;;;;;;4991401;28;20442;-48
2022/10/08 02:56:03;;;;;;;4.07;1.70;;;16.90;59.40;;;;;;4994362;28;20485;-48
2022/10/08 02:58:32;;;;;;;3.53;1.63;;;16.90;59.50;;;;;;5012597;28;20441;-48
2022/10/08 03:01:09;;;;;;;3.07;1.30;;;16.90;59.50;;;;;;4989866;28;20480;-48
2022/10/08 03:03:44;;;;;;;2.93;1.63;;;16.80;59.40;;;;;;4989810;28;20468;-48
2022/10/08 03:06:14;;;;;;;1.90;1.27;;;16.80;59.50;;;;;;4990753;28;20484;-48
2022/10/08 03:08:47;;;;;;;1.73;1.00;;;16.80;59.40;;;;;;4989767;28;20452;-48
2022/10/08 03:11:17;;;;;;;1.83;1.60;;;16.80;59.50;;;;;;5006438;28;20561;-48
2022/10/08 03:13:48;;;;;;;2.20;1.57;;;16.80;59.60;;;;;;4990986;28;20529;-48
2022/10/08 03:16:22;;;;;;;2.20;2.00;;;16.80;59.50;;;;;;4997992;28;20493;-48
2022/10/08 03:18:52;;;;;;;1.40;1.00;;;16.80;59.70;;;;;;4994257;28;20477;-48
2022/10/08 03:21:21;;;;;;;2.00;1.27;;;16.80;59.70;;;;;;4991758;28;21063;-48
2022/10/08 03:23:50;;;;;;;2.07;1.20;;;16.80;59.60;;;;;;4990257;28;20500;-48
2022/10/08 03:26:18;;;;;;;1.93;1.50;;;16.80;59.70;;;;;;4994787;28;21109;-48
2022/10/08 03:28:47;;;;;;;1.70;1.20;;;16.80;59.70;;;;;;4990782;28;20442;-48
2022/10/08 03:31:15;;;;;;;3.80;1.20;;;16.80;59.70;;;;;;4991530;28;20858;-48
2022/10/08 03:33:49;;;;;;;3.10;1.50;;;16.80;59.70;;;;;;4990484;28;20437;-48
2022/10/08 03:36:18;;;;;;;1.77;1.00;;;16.80;59.70;;;;;;4992783;28;20537;-48
2022/10/08 03:38:47;;;;;;;3.30;1.40;;;16.80;59.70;;;;;;4995523;28;20438;-48
2022/10/08 03:41:17;;;;;;;2.10;1.47;;;16.80;59.70;;;;;;4990154;28;20573;-48
2022/10/08 03:43:45;;;;;;;2.90;1.27;;;16.80;59.70;;;;;;5009454;28;20433;-48
2022/10/08 03:46:15;;;;;;;1.80;0.90;;;16.80;59.80;;;;;;4993303;28;20474;-48
2022/10/08 03:48:48;;;;;;;1.73;1.37;;;16.80;59.80;;;;;;4989140;28;20984;-48
2022/10/08 03:51:18;;;;;;;3.60;1.77;;;16.80;60.00;;;;;;4984762;28;20524;-48
2022/10/08 03:53:47;;;;;;;3.73;1.80;;;16.80;59.90;;;;;;4974917;28;20441;-48
2022/10/08 03:56:17;;;;;;;3.90;2.03;;;16.80;60.00;;;;;;4994210;28;20488;-48
2022/10/08 03:58:46;;;;;;;1.50;1.40;;;16.70;60.00;;;;;;5002476;28;20445;-48
2022/10/08 04:01:16;;;;;;;3.57;1.30;;;16.70;59.90;;;;;;4993011;28;20846;-48
2022/10/08 04:03:46;;;;;;;2.97;1.23;;;16.70;60.00;;;;;;4989901;28;20453;-48
2022/10/08 04:06:15;;;;;;;3.07;1.80;;;16.70;60.00;;;;;;4996269;28;20477;-47
2022/10/08 04:08:44;;;;;;;2.60;1.37;;;16.70;60.00;;;;;;4989676;28;20446;-48
2022/10/08 04:11:14;;;;;;;1.30;1.20;;;16.70;60.20;;;;;;4968448;28;20906;-48
2022/10/08 04:13:43;;;;;;;2.23;1.37;;;16.70;60.10;;;;;;5011965;28;20477;-48
2022/10/08 04:16:13;;;;;;;2.20;1.37;;;16.70;60.20;;;;;;4994647;28;20486;-48
2022/10/08 04:18:42;;;;;;;2.20;1.40;;;16.70;60.30;;;;;;4988433;28;20438;-48
2022/10/08 04:21:15;;;;;;;2.17;1.10;;;16.70;60.30;;;;;;5006345;28;20961;-48
2022/10/08 04:23:44;;;;;;;1.83;1.43;;;16.70;60.30;;;;;;5009871;28;20441;-48
2022/10/08 04:26:14;;;;;;;2.03;1.77;;;16.70;60.70;;;;;;4989617;28;21052;-48
2022/10/08 04:28:44;;;;;;;3.13;1.60;;;16.70;60.70;;;;;;4994799;28;20854;-48
2022/10/08 04:31:15;;;;;;;4.07;1.40;;;16.60;60.50;;;;;;5005900;28;20569;-48
2022/10/08 04:33:45;;;;;;;1.37;1.20;;;16.70;60.70;;;;;;5006833;28;20442;-48
2022/10/08 04:36:17;;;;;;;2.47;1.20;;;16.60;60.70;;;;;;5000969;28;20474;-48
2022/10/08 04:38:46;;;;;;;1.30;1.20;;;16.60;60.60;;;;;;5014086;28;20444;-48
2022/10/08 04:41:16;;;;;;;1.83;1.00;;;16.60;60.60;;;;;;4998702;28;20474;-48
2022/10/08 04:43:45;;;;;;;2.40;1.20;;;16.60;60.60;;;;;;5002501;28;20520;-48
2022/10/08 04:46:16;;;;;;;1.93;1.23;;;16.60;60.60;;;;;;4989267;28;21000;-48
2022/10/08 04:48:47;;;;;;;3.30;1.30;;;16.60;60.60;;;;;;4995884;28;20469;-48
2022/10/08 04:51:17;;;;;;;3.47;1.33;;;16.60;60.60;;;;;;5009083;28;20540;-48
2022/10/08 04:53:46;;;;;;;1.50;1.20;;;16.60;60.60;;;;;;4989780;28;20438;-49
2022/10/08 04:56:17;;;;;;;2.00;1.00;;;16.60;60.70;;;;;;5009358;28;20497;-48
2022/10/08 04:58:46;;;;;;;3.03;1.37;;;16.60;60.60;;;;;;4994016;28;20436;-48
2022/10/08 05:01:17;;;;;;;2.17;1.20;;;16.60;60.60;;;;;;4991008;28;20473;-48
2022/10/08 05:03:47;;;;;;;1.60;1.30;;;16.60;60.70;;;;;;4975810;28;20438;-48
2022/10/08 05:06:19;;;;;;;2.00;1.30;;;16.60;60.60;;;;;;4996241;28;20532;-48
2022/10/08 05:08:48;;;;;;;1.93;1.23;;;16.60;60.60;;;;;;5011854;28;20823;-48
2022/10/08 05:11:17;;;;;;;1.23;1.00;;;16.60;60.60;;;;;;4988753;28;20469;-48
2022/10/08 05:13:50;;;;;;;1.60;1.10;;;16.60;60.60;;;;;;4990262;28;20957;-48
2022/10/08 05:16:18;;;;;;;2.47;1.50;;;16.60;60.60;;;;;;5001414;28;20481;-48
2022/10/08 05:18:49;;;;;;;1.90;1.13;;;16.60;60.60;;;;;;4987653;28;20442;-48
2022/10/08 05:21:21;;;;;;;1.20;1.03;;;16.60;60.60;;;;;;5005868;28;20481;-48
2022/10/08 05:23:54;;;;;;;3.23;1.10;;;16.60;60.70;;;;;;4995071;28;20430;-49
2022/10/08 05:26:25;;;;;;;3.47;1.20;;;16.60;60.60;;;;;;4993679;28;21068;-49
2022/10/08 05:29:14;;;;;;;1.57;1.30;;;16.60;60.70;;;;;;4990907;28;20457;-48
2022/10/08 05:31:42;;;;;;;2.03;1.23;;;16.60;60.60;;;;;;4987940;28;20465;-48
2022/10/08 05:34:12;;;;;;;5.80;1.43;;;16.60;61.90;;;;;;4984412;28;20801;-47
2022/10/08 05:36:42;;;;;;;1.43;1.10;;;16.60;60.60;;;;;;4983651;28;20465;-47
2022/10/08 05:39:11;;;;;;;1.43;1.33;;;16.60;60.60;;;;;;4990719;28;20545;-48
2022/10/08 05:41:41;;;;;;;4.33;1.07;;;16.50;60.50;;;;;;5002444;28;20841;-47
2022/10/08 05:44:11;;;;;;;1.90;1.20;;;16.50;60.50;;;;;;4999686;28;20447;-48
2022/10/08 05:46:40;;;;;;;2.27;1.70;;;16.50;60.50;;;;;;4986532;28;20477;-48
2022/10/08 05:49:17;;;;;;;1.07;0.97;;;16.50;60.50;;;;;;5006595;28;20466;-48
2022/10/08 05:51:48;;;;;;;1.77;1.20;;;16.50;60.50;;;;;;4986141;28;20470;-47
2022/10/08 05:54:18;;;;;;;1.50;1.13;;;16.50;60.50;;;;;;5011644;28;20880;-48
2022/10/08 05:56:51;;;;;;;2.10;1.43;;;16.50;60.50;;;;;;4995083;28;20477;-48
2022/10/08 05:59:27;;;;;;;2.23;1.47;;;16.50;60.50;;;;;;5005142;28;20476;-48
2022/10/08 06:02:28;;;;;;;1.37;1.10;;;16.50;60.50;;;;;;4971050;28;20465;-47
2022/10/08 06:05:27;;;;;;;1.67;1.40;;;16.50;60.50;;;;;;4994794;28;20569;-48
2022/10/08 06:08:57;;;;;;;3.30;1.43;;;16.50;60.50;;;;;;4989588;28;20442;-48
2022/10/08 06:19:41;;;;;;;2.00;1.80;;;16.50;60.50;;;;;;5000416;28;20436;-48
2022/10/08 06:22:14;;;;;;;3.17;1.40;;;16.50;60.50;;;;;;5006719;28;20457;-49
2022/10/08 06:24:43;;;;;;;1.73;1.30;;;16.50;61.70;;;;;;4992328;28;20977;-48
2022/10/08 06:27:13;;;;;;;1.93;1.27;;;16.40;60.40;;;;;;5005418;28;20439;-48
2022/10/08 06:29:42;;;;;;;2.00;1.10;;;16.40;60.40;;;;;;4990717;28;20452;-47
2022/10/08 06:32:12;;;;;;;3.60;1.60;;;16.40;60.40;;;;;;4991749;28;20442;-48
2022/10/08 06:34:42;;;;;;;2.40;1.40;;;16.40;60.40;;;;;;4992035;28;20508;-48
2022/10/08 06:37:11;;;;;;;2.20;1.20;;;16.40;60.40;;;;;;5020047;28;20534;-48
2022/10/08 06:39:40;;;;;;;2.07;1.30;;;16.40;60.40;;;;;;5005670;28;20845;-48
2022/10/08 06:42:16;;;;;;;1.20;1.10;;;16.40;60.40;;;;;;4986747;28;20449;-48
2022/10/08 06:44:45;;;;;;;1.93;1.30;;;16.40;60.40;;;;;;5013452;28;20464;-48
2022/10/08 06:47:14;;;;;;;3.57;1.40;;;16.40;60.50;;;;;;5004895;28;20502;-48
2022/10/08 06:49:45;;;;;;;2.23;1.67;;;16.40;60.40;;;;;;4989254;28;20457;-47
2022/10/08 06:52:15;;;;;;;4.23;1.80;;;16.40;60.60;;;;;;4997587;28;20444;-48
2022/10/08 06:54:44;;;;;;;3.23;1.63;;;16.40;60.50;;;;;;4993467;28;21861;-48
2022/10/08 06:57:15;;;;;;;1.40;1.07;;;16.40;60.40;;;;;;4985500;28;20484;-48
2022/10/08 06:59:46;;;;;;;3.63;1.20;;;16.40;60.50;;;;;;4996723;28;20446;-48
2022/10/08 07:02:17;;;;;;;1.90;1.23;;;16.40;60.40;;;;;;5010874;28;20454;-48
2022/10/08 07:04:48;;;;;;;3.30;1.33;;;16.40;60.50;;;;;;4988391;28;21189;-48
2022/10/08 07:07:18;;;;;;;2.60;1.20;;;16.40;60.40;;;;;;4999600;28;21000;-48
2022/10/08 07:09:48;;;;;;;1.23;1.00;;;16.40;60.50;;;;;;4992631;28;20960;-48
2022/10/08 07:12:17;;;;;;;2.13;1.37;;;16.40;60.40;;;;;;4997223;28;20446;-48
2022/10/08 07:14:47;;;;;;;1.63;1.17;;;16.40;60.50;;;;;;4990123;28;20500;-48
2022/10/08 07:17:16;;;;;;;2.13;1.30;;;16.40;60.60;;;;;;5005446;28;20815;-48
2022/10/08 07:19:44;;;;;;;1.53;1.27;;;16.40;60.40;;;;;;4990723;28;20484;-48
2022/10/08 07:22:15;;;;;;;2.00;0.90;;;16.40;60.50;;;;;;4990788;28;20570;-48
2022/10/08 07:24:43;;;;;;;1.37;1.27;;;16.40;60.80;;;;;;5004022;28;20533;-48
2022/10/08 07:27:12;;;;;;;4.80;2.70;;;16.40;60.40;;;;;;4988994;28;20795;-47
2022/10/08 07:29:41;;;;;;;3.40;2.40;;;16.30;64.40;;;;;;4989679;28;20444;-48
2022/10/08 07:32:10;;;;;;;6.30;3.20;;;16.30;63.70;;;;;;5005235;28;20442;-48
2022/10/08 07:34:38;;;;;;;3.10;2.30;;;16.30;63.30;;;;;;4994409;28;20446;-48
2022/10/08 07:37:07;;;;;;;4.33;2.40;;;16.30;63.30;;;;;;4990072;28;20461;-48
2022/10/08 07:39:37;;;;;;;3.30;1.93;;;16.30;63.10;;;;;;4988516;28;20468;-48
2022/10/08 07:42:06;;;;;;;4.00;2.07;;;16.30;62.70;;;;;;4987730;28;20457;-48
2022/10/08 07:44:34;;;;;;;3.10;2.20;;;16.30;62.80;;;;;;5102888;22;20873;-69
2022/10/08 07:47:03;;;;;;;3.20;2.60;;;16.30;62.70;;;;;;5003981;28;21059;-71
2022/10/08 07:49:31;;;;;;;3.23;2.40;;;16.30;62.90;;;;;;5007324;28;20440;-70
2022/10/08 07:51:59;;;;;;;4.70;2.50;;;16.30;62.60;;;;;;5009257;28;20541;-69
2022/10/08 07:54:28;;;;;;;5.10;2.90;;;16.30;62.70;;;;;;5005445;28;20535;-69
2022/10/08 07:57:00;;;;;;;6.40;2.87;;;16.30;62.70;;;;;;4999111;28;20470;-71
2022/10/08 07:59:29;;;;;;;3.80;2.03;;;16.30;62.60;;;;;;5006779;28;20873;-69
2022/10/08 08:01:57;;;;;;;2.83;1.93;;;16.30;62.40;;;;;;5005899;28;20459;-70
2022/10/08 08:04:25;;;;;;;2.63;2.13;;;16.30;62.40;;;;;;4988148;28;20560;-69
2022/10/08 08:06:54;;;;;;;2.77;2.00;;;16.30;62.60;;;;;;5005842;28;20475;-70
2022/10/08 08:09:23;;;;;;;3.43;2.00;;;16.30;62.30;;;;;;5006203;28;20524;-70
2022/10/08 08:11:51;;;;;;;2.47;2.10;;;16.30;62.50;;;;;;5006813;28;20548;-70
2022/10/08 08:14:38;;;;;;;2.87;2.03;;;16.30;62.30;;;;;;5007431;28;20472;-69
2022/10/08 08:17:31;;;;;;;3.63;2.07;;;16.30;62.30;;;;;;5004089;28;20468;-70
2022/10/08 08:19:59;;;;;;;2.17;1.97;;;16.30;62.20;;;;;;4997949;28;20472;-69
2022/10/08 08:22:28;;;;;;;2.70;1.87;;;16.30;62.20;;;;;;5004984;28;20433;-69
2022/10/08 08:24:56;;;;;;;3.40;1.73;;;16.30;62.00;;;;;;5020304;28;20880;-70
2022/10/08 08:27:24;;;;;;;1.80;1.30;;;16.30;61.70;;;;;;5006985;28;20547;-70
2022/10/08 08:29:54;;;;;;;1.90;1.50;;;16.30;61.60;;;;;;4998383;28;20532;-69
2022/10/08 08:32:23;;;;;;;2.90;1.63;;;16.30;61.50;;;;;;5004970;28;20487;-70
2022/10/08 08:34:55;;;;;;;2.03;1.37;;;16.30;61.50;;;;;;5015398;28;20450;-68
2022/10/08 08:37:24;;;;;;;3.03;1.90;;;16.30;61.40;;;;;;4986322;28;20442;-69
2022/10/08 08:39:52;;;;;;;2.90;1.87;;;16.30;61.40;;;;;;5001238;28;20460;-70
2022/10/08 08:51:40;;;;;;;2.70;1.90;;;16.30;61.20;;;;;;5007759;28;20491;-73
2022/10/08 08:54:13;;;;;;;2.27;1.70;;;16.40;61.40;;;;;;5002731;28;20815;-72
2022/10/08 09:04:55;;;;;;;3.17;2.23;;;16.40;61.30;;;;;;5018122;28;20468;-73
2022/10/08 10:26:54;;;;;;;2.13;1.93;;;16.30;60.80;;;;;;5016827;28;20464;-49
2022/10/08 10:29:28;;;;;;;2.73;1.70;;;16.30;60.90;;;;;;5132782;23;20575;-75
2022/10/08 10:32:02;;;;;;;1.60;1.47;;;16.30;60.80;;;;;;4937029;28;20589;-74
2022/10/08 10:34:35;;;;;;;2.50;1.80;;;16.30;60.90;;;;;;4937192;28;20482;-74
2022/10/08 10:37:12;;;;;;;3.33;2.00;;;16.30;62.10;;;;;;4918571;28;20459;-74
2022/10/08 10:39:46;;;;;;;2.63;1.77;;;16.30;61.00;;;;;;4939180;28;20546;-74
2022/10/08 10:42:19;;;;;;;3.30;1.80;;;16.30;60.70;;;;;;4941190;28;20491;-74
2022/10/08 10:44:53;;;;;;;2.13;1.93;;;16.30;60.80;;;;;;4948914;28;20476;-73
2022/10/08 10:47:24;;;;;;;2.53;2.27;;;16.30;60.50;;;;;;4927682;28;20453;-73
2022/10/08 10:50:01;;;;;;;3.40;1.50;;;16.30;60.40;;;;;;4929845;28;20990;-73
